sensor_id;sensor_type;location;lat;lon;timestamp;P1;durP1;ratioP1;P2;durP2;ratioP2
56667;SDS011;42542;48.360;10.958;2022-12-08T00:01:09;23.30;;;9.93;;
56667;SDS011;42542;48.360;10.958;2022-12-08T00:04:12;26.13;;;9.70;;
56667;SDS011;42542;48.360;10.958;2022-12-08T00:07:14;26.60;;;9.65;;
56667;SDS011;42542;48.360;10.958;2022-12-08T00:10:34;26.60;;;9.90;;
56667;SDS011;42542;48.360;10.958;2022-12-08T00:13:51;25.35;;;9.65;;
56667;SDS011;42542;48.360;10.958;2022-12-08T00:16:53;22.83;;;9.27;;
56667;SDS011;42542;48.360;10.958;2022-12-08T00:19:55;24.05;;;9.52;;
56667;SDS011;42542;48.360;10.958;2022-12-08T00:22:56;24.67;;;9.93;;
56667;SDS011;42542;48.360;10.958;2022-12-08T00:26:04;25.23;;;9.10;;
56667;SDS011;42542;48.360;10.958;2022-12-08T00:29:07;25.70;;;10.07;;
56667;SDS011;42542;48.360;10.958;2022-12-08T00:32:16;24.83;;;9.60;;
56667;SDS011;42542;48.360;10.958;2022-12-08T00:35:17;29.08;;;9.35;;
56667;SDS011;42542;48.360;10.958;2022-12-08T00:38:19;24.20;;;9.27;;
56667;SDS011;42542;48.360;10.958;2022-12-08T00:41:22;28.65;;;10.60;;
56667;SDS011;42542;48.360;10.958;2022-12-08T00:44:44;24.30;;;9.35;;
56667;SDS011;42542;48.360;10.958;2022-12-08T00:47:46;23.30;;;8.87;;
56667;SDS011;42542;48.360;10.958;2022-12-08T00:50:47;24.17;;;9.02;;
56667;SDS011;42542;48.360;10.958;2022-12-08T00:53:49;22.08;;;8.70;;
56667;SDS011;42542;48.360;10.958;2022-12-08T00:56:51;25.03;;;9.30;;
56667;SDS011;42542;48.360;10.958;2022-12-08T00:59:52;24.13;;;8.98;;
56667;SDS011;42542;48.360;10.958;2022-12-08T01:02:54;23.23;;;9.27;;
56667;SDS011;42542;48.360;10.958;2022-12-08T01:05:55;22.52;;;8.73;;
56667;SDS011;42542;48.360;10.958;2022-12-08T01:08:57;25.85;;;9.02;;
56667;SDS011;42542;48.360;10.958;2022-12-08T01:11:59;24.38;;;9.30;;
56667;SDS011;42542;48.360;10.958;2022-12-08T01:15:00;21.73;;;9.02;;
56667;SDS011;42542;48.360;10.958;2022-12-08T01:18:03;24.40;;;9.70;;
56667;SDS011;42542;48.360;10.958;2022-12-08T01:21:05;24.23;;;9.25;;
56667;SDS011;42542;48.360;10.958;2022-12-08T01:24:15;25.42;;;9.13;;
56667;SDS011;42542;48.360;10.958;2022-12-08T01:27:21;22.60;;;9.00;;
56667;SDS011;42542;48.360;10.958;2022-12-08T01:30:22;24.88;;;9.05;;
56667;SDS011;42542;48.360;10.958;2022-12-08T01:33:24;21.30;;;9.02;;
56667;SDS011;42542;48.360;10.958;2022-12-08T01:36:26;25.23;;;9.48;;
56667;SDS011;42542;48.360;10.958;2022-12-08T01:39:30;19.85;;;8.15;;
56667;SDS011;42542;48.360;10.958;2022-12-08T01:42:31;24.17;;;9.25;;
56667;SDS011;42542;48.360;10.958;2022-12-08T01:45:34;22.33;;;8.55;;
56667;SDS011;42542;48.360;10.958;2022-12-08T01:48:36;21.77;;;9.13;;
56667;SDS011;42542;48.360;10.958;2022-12-08T01:51:40;25.05;;;9.60;;
56667;SDS011;42542;48.360;10.958;2022-12-08T01:54:48;24.58;;;9.02;;
56667;SDS011;42542;48.360;10.958;2022-12-08T01:57:55;24.07;;;8.40;;
56667;SDS011;42542;48.360;10.958;2022-12-08T02:01:06;25.42;;;9.20;;
56667;SDS011;42542;48.360;10.958;2022-12-08T02:04:08;23.10;;;9.30;;
56667;SDS011;42542;48.360;10.958;2022-12-08T02:07:10;23.00;;;8.95;;
56667;SDS011;42542;48.360;10.958;2022-12-08T02:10:15;22.33;;;9.10;;
56667;SDS011;42542;48.360;10.958;2022-12-08T02:13:19;25.95;;;8.80;;
56667;SDS011;42542;48.360;10.958;2022-12-08T02:20:01;25.93;;;9.03;;
56667;SDS011;42542;48.360;10.958;2022-12-08T02:23:29;23.70;;;9.57;;
56667;SDS011;42542;48.360;10.958;2022-12-08T02:30:14;22.10;;;8.03;;
56667;SDS011;42542;48.360;10.958;2022-12-08T02:40:05;24.20;;;9.13;;
56667;SDS011;42542;48.360;10.958;2022-12-08T02:43:19;23.83;;;9.07;;
56667;SDS011;42542;48.360;10.958;2022-12-08T02:46:29;24.10;;;8.85;;
56667;SDS011;42542;48.360;10.958;2022-12-08T02:49:34;24.40;;;9.43;;
56667;SDS011;42542;48.360;10.958;2022-12-08T02:52:45;19.50;;;7.67;;
56667;SDS011;42542;48.360;10.958;2022-12-08T03:03:08;23.10;;;8.60;;
56667;SDS011;42542;48.360;10.958;2022-12-08T03:06:22;23.15;;;8.60;;
56667;SDS011;42542;48.360;10.958;2022-12-08T03:09:34;23.83;;;9.18;;
56667;SDS011;42542;48.360;10.958;2022-12-08T03:12:38;27.10;;;8.82;;
56667;SDS011;42542;48.360;10.958;2022-12-08T03:15:44;20.38;;;8.38;;
56667;SDS011;42542;48.360;10.958;2022-12-08T03:18:55;24.23;;;9.65;;
56667;SDS011;42542;48.360;10.958;2022-12-08T03:22:24;23.60;;;9.07;;
56667;SDS011;42542;48.360;10.958;2022-12-08T03:25:29;24.27;;;8.63;;
56667;SDS011;42542;48.360;10.958;2022-12-08T03:28:34;24.35;;;8.23;;
56667;SDS011;42542;48.360;10.958;2022-12-08T03:31:36;21.50;;;8.25;;
56667;SDS011;42542;48.360;10.958;2022-12-08T03:34:42;23.40;;;8.80;;
56667;SDS011;42542;48.360;10.958;2022-12-08T03:37:47;24.52;;;9.30;;
56667;SDS011;42542;48.360;10.958;2022-12-08T03:40:49;26.15;;;9.35;;
56667;SDS011;42542;48.360;10.958;2022-12-08T03:44:10;24.25;;;8.63;;
56667;SDS011;42542;48.360;10.958;2022-12-08T03:47:12;24.52;;;9.00;;
56667;SDS011;42542;48.360;10.958;2022-12-08T03:50:14;25.35;;;8.90;;
56667;SDS011;42542;48.360;10.958;2022-12-08T03:57:21;22.77;;;8.83;;
56667;SDS011;42542;48.360;10.958;2022-12-08T04:00:22;23.65;;;8.88;;
56667;SDS011;42542;48.360;10.958;2022-12-08T04:03:24;23.10;;;8.65;;
56667;SDS011;42542;48.360;10.958;2022-12-08T04:06:26;25.20;;;9.13;;
56667;SDS011;42542;48.360;10.958;2022-12-08T04:09:27;25.27;;;9.43;;
56667;SDS011;42542;48.360;10.958;2022-12-08T04:12:29;24.73;;;8.88;;
56667;SDS011;42542;48.360;10.958;2022-12-08T04:15:31;22.67;;;9.07;;
56667;SDS011;42542;48.360;10.958;2022-12-08T04:18:33;22.42;;;8.73;;
56667;SDS011;42542;48.360;10.958;2022-12-08T04:21:35;23.70;;;9.15;;
56667;SDS011;42542;48.360;10.958;2022-12-08T04:24:37;23.23;;;8.88;;
56667;SDS011;42542;48.360;10.958;2022-12-08T04:27:38;25.73;;;8.77;;
56667;SDS011;42542;48.360;10.958;2022-12-08T04:30:40;22.65;;;8.73;;
56667;SDS011;42542;48.360;10.958;2022-12-08T04:33:41;27.25;;;8.98;;
56667;SDS011;42542;48.360;10.958;2022-12-08T04:36:43;25.40;;;9.20;;
56667;SDS011;42542;48.360;10.958;2022-12-08T04:39:45;23.08;;;8.68;;
56667;SDS011;42542;48.360;10.958;2022-12-08T04:42:46;22.23;;;8.63;;
56667;SDS011;42542;48.360;10.958;2022-12-08T04:45:48;24.45;;;9.30;;
56667;SDS011;42542;48.360;10.958;2022-12-08T04:48:49;25.42;;;8.70;;
56667;SDS011;42542;48.360;10.958;2022-12-08T04:51:51;26.42;;;8.98;;
56667;SDS011;42542;48.360;10.958;2022-12-08T04:54:52;23.17;;;9.52;;
56667;SDS011;42542;48.360;10.958;2022-12-08T04:57:54;28.47;;;9.83;;
56667;SDS011;42542;48.360;10.958;2022-12-08T05:00:56;25.48;;;9.50;;
56667;SDS011;42542;48.360;10.958;2022-12-08T05:03:57;23.90;;;9.32;;
56667;SDS011;42542;48.360;10.958;2022-12-08T05:06:59;24.70;;;9.97;;
56667;SDS011;42542;48.360;10.958;2022-12-08T05:10:01;24.25;;;8.90;;
56667;SDS011;42542;48.360;10.958;2022-12-08T05:13:03;24.83;;;9.80;;
56667;SDS011;42542;48.360;10.958;2022-12-08T05:16:09;24.50;;;9.50;;
56667;SDS011;42542;48.360;10.958;2022-12-08T05:19:13;26.27;;;9.00;;
56667;SDS011;42542;48.360;10.958;2022-12-08T05:22:15;27.48;;;10.10;;
56667;SDS011;42542;48.360;10.958;2022-12-08T05:25:17;27.02;;;9.38;;
56667;SDS011;42542;48.360;10.958;2022-12-08T05:28:19;23.17;;;8.47;;
56667;SDS011;42542;48.360;10.958;2022-12-08T05:31:40;22.58;;;8.80;;
56667;SDS011;42542;48.360;10.958;2022-12-08T05:34:42;23.58;;;8.70;;
56667;SDS011;42542;48.360;10.958;2022-12-08T05:37:43;23.53;;;9.07;;
56667;SDS011;42542;48.360;10.958;2022-12-08T05:40:45;23.75;;;9.52;;
56667;SDS011;42542;48.360;10.958;2022-12-08T05:43:47;24.30;;;9.27;;
56667;SDS011;42542;48.360;10.958;2022-12-08T05:46:49;22.90;;;9.30;;
56667;SDS011;42542;48.360;10.958;2022-12-08T05:49:50;23.95;;;9.25;;
56667;SDS011;42542;48.360;10.958;2022-12-08T05:52:52;23.02;;;8.77;;
56667;SDS011;42542;48.360;10.958;2022-12-08T05:55:54;23.77;;;9.10;;
56667;SDS011;42542;48.360;10.958;2022-12-08T05:58:55;21.63;;;9.17;;
56667;SDS011;42542;48.360;10.958;2022-12-08T06:01:57;25.40;;;8.73;;
56667;SDS011;42542;48.360;10.958;2022-12-08T06:04:59;25.55;;;9.27;;
56667;SDS011;42542;48.360;10.958;2022-12-08T06:08:00;24.33;;;8.90;;
56667;SDS011;42542;48.360;10.958;2022-12-08T06:11:02;27.85;;;9.40;;
56667;SDS011;42542;48.360;10.958;2022-12-08T06:14:03;23.75;;;8.98;;
56667;SDS011;42542;48.360;10.958;2022-12-08T06:17:05;24.15;;;9.77;;
56667;SDS011;42542;48.360;10.958;2022-12-08T06:20:07;25.75;;;8.73;;
56667;SDS011;42542;48.360;10.958;2022-12-08T06:23:09;22.23;;;9.10;;
56667;SDS011;42542;48.360;10.958;2022-12-08T06:26:11;23.30;;;8.88;;
56667;SDS011;42542;48.360;10.958;2022-12-08T06:29:15;20.60;;;8.60;;
56667;SDS011;42542;48.360;10.958;2022-12-08T06:32:17;20.20;;;8.65;;
56667;SDS011;42542;48.360;10.958;2022-12-08T06:35:24;24.15;;;8.77;;
56667;SDS011;42542;48.360;10.958;2022-12-08T06:38:26;26.23;;;8.90;;
56667;SDS011;42542;48.360;10.958;2022-12-08T06:41:28;23.33;;;8.88;;
56667;SDS011;42542;48.360;10.958;2022-12-08T06:44:29;24.67;;;8.73;;
56667;SDS011;42542;48.360;10.958;2022-12-08T06:47:31;25.88;;;9.70;;
56667;SDS011;42542;48.360;10.958;2022-12-08T06:50:32;27.10;;;10.25;;
56667;SDS011;42542;48.360;10.958;2022-12-08T06:53:35;29.38;;;11.25;;
56667;SDS011;42542;48.360;10.958;2022-12-08T06:56:37;29.17;;;11.00;;
56667;SDS011;42542;48.360;10.958;2022-12-08T06:59:38;28.10;;;10.87;;
56667;SDS011;42542;48.360;10.958;2022-12-08T07:02:40;28.33;;;11.20;;
56667;SDS011;42542;48.360;10.958;2022-12-08T07:05:42;27.67;;;10.50;;
56667;SDS011;42542;48.360;10.958;2022-12-08T07:08:44;27.37;;;10.40;;
56667;SDS011;42542;48.360;10.958;2022-12-08T07:11:45;26.85;;;9.65;;
56667;SDS011;42542;48.360;10.958;2022-12-08T07:14:47;23.00;;;9.30;;
56667;SDS011;42542;48.360;10.958;2022-12-08T07:17:48;25.45;;;9.82;;
56667;SDS011;42542;48.360;10.958;2022-12-08T07:21:00;30.33;;;9.93;;
56667;SDS011;42542;48.360;10.958;2022-12-08T07:24:03;29.25;;;10.18;;
56667;SDS011;42542;48.360;10.958;2022-12-08T07:27:05;26.70;;;10.45;;
56667;SDS011;42542;48.360;10.958;2022-12-08T07:30:07;26.20;;;10.20;;
56667;SDS011;42542;48.360;10.958;2022-12-08T07:33:09;29.00;;;11.35;;
56667;SDS011;42542;48.360;10.958;2022-12-08T07:36:11;29.35;;;11.65;;
56667;SDS011;42542;48.360;10.958;2022-12-08T07:39:12;29.40;;;12.13;;
56667;SDS011;42542;48.360;10.958;2022-12-08T07:42:14;28.90;;;11.30;;
56667;SDS011;42542;48.360;10.958;2022-12-08T07:45:19;31.20;;;11.32;;
56667;SDS011;42542;48.360;10.958;2022-12-08T07:48:21;31.95;;;11.73;;
56667;SDS011;42542;48.360;10.958;2022-12-08T07:51:23;28.10;;;11.93;;
56667;SDS011;42542;48.360;10.958;2022-12-08T07:54:25;32.42;;;11.32;;
56667;SDS011;42542;48.360;10.958;2022-12-08T07:57:27;28.15;;;11.52;;
56667;SDS011;42542;48.360;10.958;2022-12-08T08:00:29;30.57;;;11.17;;
56667;SDS011;42542;48.360;10.958;2022-12-08T08:03:31;31.58;;;11.43;;
56667;SDS011;42542;48.360;10.958;2022-12-08T08:06:33;29.48;;;11.23;;
56667;SDS011;42542;48.360;10.958;2022-12-08T08:09:36;31.50;;;11.70;;
56667;SDS011;42542;48.360;10.958;2022-12-08T08:12:38;28.48;;;11.73;;
56667;SDS011;42542;48.360;10.958;2022-12-08T08:15:39;29.13;;;11.63;;
56667;SDS011;42542;48.360;10.958;2022-12-08T08:18:41;29.90;;;11.65;;
56667;SDS011;42542;48.360;10.958;2022-12-08T08:21:43;28.63;;;11.15;;
56667;SDS011;42542;48.360;10.958;2022-12-08T08:24:46;31.85;;;12.30;;
56667;SDS011;42542;48.360;10.958;2022-12-08T08:27:48;28.63;;;11.13;;
56667;SDS011;42542;48.360;10.958;2022-12-08T08:30:50;25.53;;;10.43;;
56667;SDS011;42542;48.360;10.958;2022-12-08T08:33:52;30.95;;;11.73;;
56667;SDS011;42542;48.360;10.958;2022-12-08T08:36:54;27.33;;;10.98;;
56667;SDS011;42542;48.360;10.958;2022-12-08T08:39:55;29.60;;;11.53;;
56667;SDS011;42542;48.360;10.958;2022-12-08T08:42:58;31.58;;;11.63;;
56667;SDS011;42542;48.360;10.958;2022-12-08T08:46:02;31.27;;;11.43;;
56667;SDS011;42542;48.360;10.958;2022-12-08T08:49:04;30.80;;;11.50;;
56667;SDS011;42542;48.360;10.958;2022-12-08T08:52:06;29.65;;;10.85;;
56667;SDS011;42542;48.360;10.958;2022-12-08T08:55:08;27.80;;;10.68;;
56667;SDS011;42542;48.360;10.958;2022-12-08T08:58:10;28.65;;;10.95;;
56667;SDS011;42542;48.360;10.958;2022-12-08T09:01:18;29.47;;;10.57;;
56667;SDS011;42542;48.360;10.958;2022-12-08T09:04:22;30.13;;;10.73;;
56667;SDS011;42542;48.360;10.958;2022-12-08T09:07:23;29.70;;;11.45;;
56667;SDS011;42542;48.360;10.958;2022-12-08T09:10:25;28.10;;;11.07;;
56667;SDS011;42542;48.360;10.958;2022-12-08T09:13:27;31.38;;;11.95;;
56667;SDS011;42542;48.360;10.958;2022-12-08T09:16:29;31.83;;;12.55;;
56667;SDS011;42542;48.360;10.958;2022-12-08T09:19:31;39.28;;;14.50;;
56667;SDS011;42542;48.360;10.958;2022-12-08T09:22:33;36.85;;;13.25;;
56667;SDS011;42542;48.360;10.958;2022-12-08T09:25:34;35.75;;;12.50;;
56667;SDS011;42542;48.360;10.958;2022-12-08T09:28:36;29.17;;;11.98;;
56667;SDS011;42542;48.360;10.958;2022-12-08T09:31:38;27.83;;;11.40;;
56667;SDS011;42542;48.360;10.958;2022-12-08T09:34:40;28.55;;;11.45;;
56667;SDS011;42542;48.360;10.958;2022-12-08T09:37:41;28.08;;;11.05;;
56667;SDS011;42542;48.360;10.958;2022-12-08T09:40:48;28.97;;;11.13;;
56667;SDS011;42542;48.360;10.958;2022-12-08T09:43:59;28.67;;;11.13;;
56667;SDS011;42542;48.360;10.958;2022-12-08T09:50:51;28.92;;;11.05;;
56667;SDS011;42542;48.360;10.958;2022-12-08T09:54:01;28.88;;;11.25;;
56667;SDS011;42542;48.360;10.958;2022-12-08T09:57:09;30.00;;;11.82;;
56667;SDS011;42542;48.360;10.958;2022-12-08T10:00:17;32.10;;;11.93;;
56667;SDS011;42542;48.360;10.958;2022-12-08T10:03:19;30.73;;;11.50;;
56667;SDS011;42542;48.360;10.958;2022-12-08T10:06:32;29.50;;;12.38;;
56667;SDS011;42542;48.360;10.958;2022-12-08T10:13:02;29.47;;;12.37;;
56667;SDS011;42542;48.360;10.958;2022-12-08T10:16:18;29.73;;;10.98;;
56667;SDS011;42542;48.360;10.958;2022-12-08T10:19:30;31.30;;;12.02;;
56667;SDS011;42542;48.360;10.958;2022-12-08T10:22:34;34.45;;;12.65;;
56667;SDS011;42542;48.360;10.958;2022-12-08T10:25:45;29.73;;;12.70;;
56667;SDS011;42542;48.360;10.958;2022-12-08T10:28:48;30.67;;;12.80;;
56667;SDS011;42542;48.360;10.958;2022-12-08T10:31:50;32.08;;;13.00;;
56667;SDS011;42542;48.360;10.958;2022-12-08T10:38:02;33.65;;;12.90;;
56667;SDS011;42542;48.360;10.958;2022-12-08T10:44:11;33.47;;;13.37;;
56667;SDS011;42542;48.360;10.958;2022-12-08T10:47:12;29.17;;;11.88;;
56667;SDS011;42542;48.360;10.958;2022-12-08T10:50:22;33.80;;;12.80;;
56667;SDS011;42542;48.360;10.958;2022-12-08T10:53:29;31.20;;;11.95;;
56667;SDS011;42542;48.360;10.958;2022-12-08T10:56:33;35.88;;;12.98;;
56667;SDS011;42542;48.360;10.958;2022-12-08T10:59:34;33.67;;;12.82;;
56667;SDS011;42542;48.360;10.958;2022-12-08T11:02:36;33.33;;;13.43;;
56667;SDS011;42542;48.360;10.958;2022-12-08T11:05:54;28.83;;;12.10;;
56667;SDS011;42542;48.360;10.958;2022-12-08T11:08:58;29.58;;;11.77;;
56667;SDS011;42542;48.360;10.958;2022-12-08T11:12:06;32.05;;;11.75;;
56667;SDS011;42542;48.360;10.958;2022-12-08T11:15:17;26.10;;;10.67;;
56667;SDS011;42542;48.360;10.958;2022-12-08T11:18:21;27.70;;;10.75;;
56667;SDS011;42542;48.360;10.958;2022-12-08T11:21:31;26.52;;;11.02;;
56667;SDS011;42542;48.360;10.958;2022-12-08T11:24:36;27.73;;;10.75;;
56667;SDS011;42542;48.360;10.958;2022-12-08T11:27:42;26.90;;;11.07;;
56667;SDS011;42542;48.360;10.958;2022-12-08T11:30:48;29.70;;;11.07;;
56667;SDS011;42542;48.360;10.958;2022-12-08T11:33:57;27.52;;;10.52;;
56667;SDS011;42542;48.360;10.958;2022-12-08T11:36:59;26.63;;;11.10;;
56667;SDS011;42542;48.360;10.958;2022-12-08T11:40:09;24.20;;;10.35;;
56667;SDS011;42542;48.360;10.958;2022-12-08T11:49:35;30.75;;;11.15;;
56667;SDS011;42542;48.360;10.958;2022-12-08T11:52:42;23.35;;;10.13;;
56667;SDS011;42542;48.360;10.958;2022-12-08T11:55:54;25.05;;;9.63;;
56667;SDS011;42542;48.360;10.958;2022-12-08T11:59:08;23.63;;;9.43;;
56667;SDS011;42542;48.360;10.958;2022-12-08T12:02:17;25.27;;;10.27;;
56667;SDS011;42542;48.360;10.958;2022-12-08T12:09:14;22.37;;;8.47;;
56667;SDS011;42542;48.360;10.958;2022-12-08T12:18:57;23.33;;;9.07;;
56667;SDS011;42542;48.360;10.958;2022-12-08T12:22:07;18.58;;;7.75;;
56667;SDS011;42542;48.360;10.958;2022-12-08T12:25:21;21.40;;;8.13;;
56667;SDS011;42542;48.360;10.958;2022-12-08T12:28:25;20.67;;;8.15;;
56667;SDS011;42542;48.360;10.958;2022-12-08T12:31:32;21.20;;;7.75;;
56667;SDS011;42542;48.360;10.958;2022-12-08T12:34:48;18.92;;;7.75;;
56667;SDS011;42542;48.360;10.958;2022-12-08T12:37:55;23.20;;;9.05;;
56667;SDS011;42542;48.360;10.958;2022-12-08T12:41:00;22.13;;;8.83;;
56667;SDS011;42542;48.360;10.958;2022-12-08T12:44:08;22.67;;;9.57;;
56667;SDS011;42542;48.360;10.958;2022-12-08T12:47:13;24.08;;;8.93;;
56667;SDS011;42542;48.360;10.958;2022-12-08T12:50:51;24.03;;;9.43;;
56667;SDS011;42542;48.360;10.958;2022-12-08T12:53:55;25.73;;;9.10;;
56667;SDS011;42542;48.360;10.958;2022-12-08T12:57:34;19.63;;;8.25;;
56667;SDS011;42542;48.360;10.958;2022-12-08T13:00:40;21.92;;;8.65;;
56667;SDS011;42542;48.360;10.958;2022-12-08T13:03:42;24.25;;;9.48;;
56667;SDS011;42542;48.360;10.958;2022-12-08T13:06:47;21.50;;;9.00;;
56667;SDS011;42542;48.360;10.958;2022-12-08T13:10:34;27.77;;;10.77;;
56667;SDS011;42542;48.360;10.958;2022-12-08T13:13:16;22.77;;;9.33;;
56667;SDS011;42542;48.360;10.958;2022-12-08T13:16:19;26.08;;;9.52;;
56667;SDS011;42542;48.360;10.958;2022-12-08T13:19:24;23.00;;;9.70;;
56667;SDS011;42542;48.360;10.958;2022-12-08T13:22:45;23.67;;;9.43;;
56667;SDS011;42542;48.360;10.958;2022-12-08T13:26:08;20.75;;;8.93;;
56667;SDS011;42542;48.360;10.958;2022-12-08T13:29:24;22.02;;;8.77;;
56667;SDS011;42542;48.360;10.958;2022-12-08T13:36:18;22.50;;;9.55;;
56667;SDS011;42542;48.360;10.958;2022-12-08T13:39:40;20.38;;;8.70;;
56667;SDS011;42542;48.360;10.958;2022-12-08T13:42:46;23.80;;;9.82;;
56667;SDS011;42542;48.360;10.958;2022-12-08T13:46:06;20.00;;;8.80;;
56667;SDS011;42542;48.360;10.958;2022-12-08T13:49:35;24.20;;;8.70;;
56667;SDS011;42542;48.360;10.958;2022-12-08T13:56:26;21.60;;;8.50;;
56667;SDS011;42542;48.360;10.958;2022-12-08T13:59:50;22.60;;;8.95;;
56667;SDS011;42542;48.360;10.958;2022-12-08T14:02:54;22.60;;;8.70;;
56667;SDS011;42542;48.360;10.958;2022-12-08T14:05:58;22.85;;;8.68;;
56667;SDS011;42542;48.360;10.958;2022-12-08T14:09:14;23.20;;;8.60;;
56667;SDS011;42542;48.360;10.958;2022-12-08T14:12:23;22.08;;;8.30;;
56667;SDS011;42542;48.360;10.958;2022-12-08T14:15:28;21.90;;;8.98;;
56667;SDS011;42542;48.360;10.958;2022-12-08T14:18:38;21.23;;;9.03;;
56667;SDS011;42542;48.360;10.958;2022-12-08T14:21:39;20.98;;;8.68;;
56667;SDS011;42542;48.360;10.958;2022-12-08T14:24:48;25.60;;;8.77;;
56667;SDS011;42542;48.360;10.958;2022-12-08T14:27:55;21.47;;;8.60;;
56667;SDS011;42542;48.360;10.958;2022-12-08T14:31:00;24.83;;;9.25;;
56667;SDS011;42542;48.360;10.958;2022-12-08T14:34:03;25.25;;;9.50;;
56667;SDS011;42542;48.360;10.958;2022-12-08T14:37:08;25.98;;;9.70;;
56667;SDS011;42542;48.360;10.958;2022-12-08T14:40:29;24.85;;;9.73;;
56667;SDS011;42542;48.360;10.958;2022-12-08T14:43:34;29.55;;;11.45;;
56667;SDS011;42542;48.360;10.958;2022-12-08T14:46:36;37.05;;;12.32;;
56667;SDS011;42542;48.360;10.958;2022-12-08T14:49:38;29.57;;;11.10;;
56667;SDS011;42542;48.360;10.958;2022-12-08T14:52:43;30.73;;;11.77;;
56667;SDS011;42542;48.360;10.958;2022-12-08T14:55:46;24.70;;;9.50;;
56667;SDS011;42542;48.360;10.958;2022-12-08T14:58:49;24.73;;;9.63;;
56667;SDS011;42542;48.360;10.958;2022-12-08T15:05:19;25.48;;;10.45;;
56667;SDS011;42542;48.360;10.958;2022-12-08T15:08:22;26.05;;;9.95;;
56667;SDS011;42542;48.360;10.958;2022-12-08T15:11:31;26.15;;;10.32;;
56667;SDS011;42542;48.360;10.958;2022-12-08T15:14:36;23.55;;;9.55;;
56667;SDS011;42542;48.360;10.958;2022-12-08T15:20:54;26.63;;;10.27;;
56667;SDS011;42542;48.360;10.958;2022-12-08T15:24:02;26.95;;;10.20;;
56667;SDS011;42542;48.360;10.958;2022-12-08T15:27:03;22.80;;;9.10;;
56667;SDS011;42542;48.360;10.958;2022-12-08T15:30:11;26.77;;;10.43;;
56667;SDS011;42542;48.360;10.958;2022-12-08T15:33:14;26.00;;;10.25;;
56667;SDS011;42542;48.360;10.958;2022-12-08T15:36:16;24.85;;;10.20;;
56667;SDS011;42542;48.360;10.958;2022-12-08T15:42:35;29.20;;;12.25;;
56667;SDS011;42542;48.360;10.958;2022-12-08T15:45:37;28.15;;;10.75;;
56667;SDS011;42542;48.360;10.958;2022-12-08T15:48:52;26.10;;;11.38;;
56667;SDS011;42542;48.360;10.958;2022-12-08T15:51:58;42.87;;;17.90;;
56667;SDS011;42542;48.360;10.958;2022-12-08T15:55:16;38.55;;;16.75;;
56667;SDS011;42542;48.360;10.958;2022-12-08T15:58:20;33.92;;;15.55;;
56667;SDS011;42542;48.360;10.958;2022-12-08T16:01:43;37.23;;;15.30;;
56667;SDS011;42542;48.360;10.958;2022-12-08T16:04:46;35.28;;;14.88;;
56667;SDS011;42542;48.360;10.958;2022-12-08T16:08:10;33.97;;;11.65;;
56667;SDS011;42542;48.360;10.958;2022-12-08T16:11:35;28.30;;;11.07;;
56667;SDS011;42542;48.360;10.958;2022-12-08T16:15:07;30.80;;;11.63;;
56667;SDS011;42542;48.360;10.958;2022-12-08T16:18:34;28.85;;;11.27;;
56667;SDS011;42542;48.360;10.958;2022-12-08T16:21:37;29.33;;;11.50;;
56667;SDS011;42542;48.360;10.958;2022-12-08T16:24:58;27.87;;;11.33;;
56667;SDS011;42542;48.360;10.958;2022-12-08T16:28:18;29.35;;;11.85;;
56667;SDS011;42542;48.360;10.958;2022-12-08T16:31:39;29.83;;;11.65;;
56667;SDS011;42542;48.360;10.958;2022-12-08T16:34:41;32.40;;;12.07;;
56667;SDS011;42542;48.360;10.958;2022-12-08T16:37:44;33.55;;;11.93;;
56667;SDS011;42542;48.360;10.958;2022-12-08T16:40:46;33.03;;;12.48;;
56667;SDS011;42542;48.360;10.958;2022-12-08T16:44:06;29.05;;;12.07;;
56667;SDS011;42542;48.360;10.958;2022-12-08T16:47:08;31.75;;;12.55;;
56667;SDS011;42542;48.360;10.958;2022-12-08T16:50:29;37.60;;;15.52;;
56667;SDS011;42542;48.360;10.958;2022-12-08T16:53:32;51.30;;;20.15;;
56667;SDS011;42542;48.360;10.958;2022-12-08T16:56:34;56.97;;;22.60;;
56667;SDS011;42542;48.360;10.958;2022-12-08T16:59:36;47.60;;;19.35;;
56667;SDS011;42542;48.360;10.958;2022-12-08T17:02:38;48.88;;;20.15;;
56667;SDS011;42542;48.360;10.958;2022-12-08T17:05:41;52.00;;;21.57;;
56667;SDS011;42542;48.360;10.958;2022-12-08T17:08:43;51.85;;;19.65;;
56667;SDS011;42542;48.360;10.958;2022-12-08T17:11:45;45.80;;;17.20;;
56667;SDS011;42542;48.360;10.958;2022-12-08T17:14:46;38.33;;;15.18;;
56667;SDS011;42542;48.360;10.958;2022-12-08T17:17:48;35.35;;;15.25;;
56667;SDS011;42542;48.360;10.958;2022-12-08T17:20:50;39.20;;;15.95;;
56667;SDS011;42542;48.360;10.958;2022-12-08T17:23:52;39.95;;;15.77;;
56667;SDS011;42542;48.360;10.958;2022-12-08T17:26:54;39.50;;;15.00;;
56667;SDS011;42542;48.360;10.958;2022-12-08T17:29:57;34.50;;;13.63;;
56667;SDS011;42542;48.360;10.958;2022-12-08T17:32:59;38.20;;;14.55;;
56667;SDS011;42542;48.360;10.958;2022-12-08T17:36:01;34.10;;;14.10;;
56667;SDS011;42542;48.360;10.958;2022-12-08T17:39:04;32.50;;;13.13;;
56667;SDS011;42542;48.360;10.958;2022-12-08T17:42:06;30.95;;;13.00;;
56667;SDS011;42542;48.360;10.958;2022-12-08T17:45:08;34.42;;;12.95;;
56667;SDS011;42542;48.360;10.958;2022-12-08T17:48:10;30.35;;;12.18;;
56667;SDS011;42542;48.360;10.958;2022-12-08T17:51:12;29.80;;;12.07;;
56667;SDS011;42542;48.360;10.958;2022-12-08T17:54:14;29.38;;;11.93;;
56667;SDS011;42542;48.360;10.958;2022-12-08T17:57:16;30.37;;;12.00;;
56667;SDS011;42542;48.360;10.958;2022-12-08T18:00:18;36.28;;;14.07;;
56667;SDS011;42542;48.360;10.958;2022-12-08T18:03:20;34.20;;;13.18;;
56667;SDS011;42542;48.360;10.958;2022-12-08T18:06:22;31.87;;;12.80;;
56667;SDS011;42542;48.360;10.958;2022-12-08T18:09:31;36.33;;;13.57;;
56667;SDS011;42542;48.360;10.958;2022-12-08T18:12:34;33.38;;;13.18;;
56667;SDS011;42542;48.360;10.958;2022-12-08T18:15:35;34.78;;;13.60;;
56667;SDS011;42542;48.360;10.958;2022-12-08T18:18:39;40.47;;;14.70;;
56667;SDS011;42542;48.360;10.958;2022-12-08T18:21:41;37.10;;;15.25;;
56667;SDS011;42542;48.360;10.958;2022-12-08T18:24:43;43.20;;;16.83;;
56667;SDS011;42542;48.360;10.958;2022-12-08T18:27:45;58.03;;;21.57;;
56667;SDS011;42542;48.360;10.958;2022-12-08T18:30:46;65.80;;;24.20;;
56667;SDS011;42542;48.360;10.958;2022-12-08T18:33:48;51.40;;;20.08;;
56667;SDS011;42542;48.360;10.958;2022-12-08T18:36:52;45.23;;;17.67;;
56667;SDS011;42542;48.360;10.958;2022-12-08T18:39:53;40.65;;;15.20;;
56667;SDS011;42542;48.360;10.958;2022-12-08T18:42:55;40.75;;;16.52;;
56667;SDS011;42542;48.360;10.958;2022-12-08T18:46:04;42.05;;;15.85;;
56667;SDS011;42542;48.360;10.958;2022-12-08T18:49:10;41.90;;;16.90;;
56667;SDS011;42542;48.360;10.958;2022-12-08T18:52:13;39.00;;;14.45;;
56667;SDS011;42542;48.360;10.958;2022-12-08T18:55:14;33.83;;;14.30;;
56667;SDS011;42542;48.360;10.958;2022-12-08T18:58:16;35.90;;;14.33;;
56667;SDS011;42542;48.360;10.958;2022-12-08T19:01:18;35.08;;;13.55;;
56667;SDS011;42542;48.360;10.958;2022-12-08T19:04:20;32.22;;;13.07;;
56667;SDS011;42542;48.360;10.958;2022-12-08T19:07:30;31.07;;;12.30;;
56667;SDS011;42542;48.360;10.958;2022-12-08T19:10:36;29.75;;;11.57;;